.
WxDataArchive / Data Records for 2014-11-04
2014-11-03 November 2014 2014-11-05

Data Records for Tuesday, 04 November 2014

Time	Temp	Chill	HIndex	Humid	Dewpt	 Wind 	HiWind	WindDir	Rain 	Barom
-----	----	-----	------	-----	-----	------	------	-------	-----	-----
00:00	58.0	58.0	58.0	30	26.7	2	6	248	0.00	30.041 
00:05	58.1	58.1	58.1	30	26.8	1	5	248	0.00	30.041 
00:10	58.1	58.1	58.1	30	26.8	2	5	248	0.00	30.041 
00:15	58.1	58.1	58.1	31	27.6	2	7	248	0.00	30.037 
00:20	58.1	58.1	58.1	30	26.8	2	7	248	0.00	30.037 
00:25	58.1	58.1	58.1	31	27.6	2	7	248	0.00	30.037 
00:30	58.0	58.0	58.0	31	27.5	1	10	248	0.00	30.035 
00:35	57.8	57.8	57.8	31	27.4	1	4	270	0.00	30.035 
00:40	57.6	57.6	57.6	32	28.0	1	6	248	0.00	30.035 
00:45	57.6	57.6	57.6	31	27.2	1	4	270	0.00	30.026 
00:50	57.5	57.5	57.5	32	27.9	1	6	270	0.00	30.026 
00:55	57.3	57.3	57.3	32	27.7	1	5	248	0.00	30.026 
01:00	57.3	57.3	57.3	32	27.7	1	4	248	0.00	30.030 
01:05	57.2	57.2	57.2	32	27.6	2	6	248	0.00	30.030 
01:10	57.2	57.2	57.2	33	28.4	1	5	248	0.00	30.030 
01:15	57.0	57.0	57.0	33	28.2	1	4	248	0.00	30.034 
01:20	57.0	57.0	57.0	33	28.2	1	6	248	0.00	30.034 
01:25	57.0	57.0	57.0	33	28.2	1	10	248	0.00	30.034 
01:30	56.9	56.9	56.9	34	28.8	1	4	248	0.00	30.026 
01:35	56.7	56.7	56.7	35	29.4	1	5	248	0.00	30.026 
01:40	56.6	56.6	56.6	34	28.6	0	3	248	0.00	30.026 
01:45	56.5	56.5	56.5	35	29.2	0	4	248	0.00	30.021 
01:50	56.3	56.3	56.3	35	29.0	1	4	270	0.00	30.021 
01:55	56.2	56.2	56.2	35	28.9	1	3	270	0.00	30.021 
02:00	56.2	56.2	56.2	36	29.6	1	5	248	0.00	30.013 
02:05	56.0	56.0	56.0	36	29.4	0	3	270	0.00	30.013 
02:10	55.9	55.9	55.9	36	29.3	0	3	248	0.00	30.013 
02:15	55.9	55.9	55.9	36	29.3	1	3	248	0.00	30.008 
02:20	55.7	55.7	55.7	37	29.8	1	3	270	0.00	30.008 
02:25	55.7	55.7	55.7	37	29.8	1	3	270	0.00	30.008 
02:30	55.7	55.7	55.7	37	29.8	0	1	270	0.00	30.009 
02:35	55.6	55.6	55.6	37	29.7	0	4	270	0.00	30.009 
02:40	55.4	55.4	55.4	37	29.6	1	5	270	0.00	30.009 
02:45	55.4	55.4	55.4	37	29.6	0	2	248	0.00	30.009 
02:50	55.4	55.4	55.4	38	30.2	0	3	248	0.00	30.009 
02:55	55.3	55.3	55.3	38	30.1	0	2	248	0.00	30.009 
03:00	55.1	55.1	55.1	39	30.6	1	3	248	0.00	30.006 
03:05	55.1	55.1	55.1	38	30.0	1	4	248	0.00	30.006 
03:10	55.1	55.1	55.1	38	30.0	1	4	248	0.00	30.006 
03:15	55.0	55.0	55.0	39	30.5	0	2	248	0.00	30.006 
03:20	55.0	55.0	55.0	39	30.5	0	2	248	0.00	30.006 
03:25	55.0	55.0	55.0	39	30.5	1	3	248	0.00	30.006 
03:30	55.0	55.0	55.0	39	30.5	0	2	248	0.00	30.006 
03:35	55.0	55.0	55.0	39	30.5	0	2	248	0.00	30.006 
03:40	55.1	55.1	55.1	39	30.6	0	3	248	0.00	30.006 
03:45	55.1	55.1	55.1	39	30.6	0	1	248	0.00	30.004 
03:50	55.1	55.1	55.1	39	30.6	1	5	270	0.00	30.004 
03:55	55.1	55.1	55.1	39	30.6	0	4	270	0.00	30.004 
04:00	55.1	55.1	55.1	40	31.2	0	1	270	0.00	29.996 
04:05	55.1	55.1	55.1	40	31.2	0	3	270	0.00	29.996 
04:10	55.0	55.0	55.0	40	31.1	0	2	248	0.00	29.996 
04:15	55.0	55.0	55.0	40	31.1	0	3	248	0.00	29.994 
04:20	55.1	55.1	55.1	40	31.2	0	3	248	0.00	29.994 
04:25	55.0	55.0	55.0	40	31.1	0	2	248	0.00	29.994 
04:30	55.0	55.0	55.0	41	31.7	0	3	248	0.00	29.992 
04:35	55.1	55.1	55.1	41	31.8	1	3	248	0.00	29.992 
04:40	55.1	55.1	55.1	40	31.2	0	3	248	0.00	29.992 
04:45	55.1	55.1	55.1	42	32.4	0	1	248	0.00	29.980 
04:50	55.1	55.1	55.1	41	31.8	0	1	248	0.00	29.980 
04:55	55.0	55.0	55.0	41	31.7	0	2	248	0.00	29.980 
05:00	55.1	55.1	55.1	41	31.8	0	2	248	0.00	29.989 
05:05	55.0	55.0	55.0	42	32.3	0	1	248	0.00	29.989 
05:10	55.0	55.0	55.0	42	32.3	0	2	248	0.00	29.989 
05:15	55.0	55.0	55.0	41	31.7	0	3	248	0.00	29.983 
05:20	55.0	55.0	55.0	42	32.3	0	4	248	0.00	29.983 
05:25	55.0	55.0	55.0	42	32.3	0	2	248	0.00	29.983 
05:30	55.0	55.0	55.0	42	32.3	0	2	248	0.00	29.988 
05:35	55.0	55.0	55.0	42	32.3	0	2	248	0.00	29.988 
05:40	55.0	55.0	55.0	42	32.3	0	3	248	0.00	29.988 
05:45	55.0	55.0	55.0	42	32.3	1	3	248	0.00	29.995 
05:50	55.0	55.0	55.0	42	32.3	1	3	248	0.00	29.995 
05:55	55.0	55.0	55.0	42	32.3	0	3	248	0.00	29.995 
06:00	55.0	55.0	55.0	42	32.3	1	4	248	0.00	29.992 
06:05	55.0	55.0	55.0	42	32.3	0	5	270	0.00	29.992 
06:10	54.8	54.8	54.8	42	32.2	1	4	270	0.00	29.992 
06:15	54.8	54.8	54.8	43	32.7	0	2	270	0.00	29.986 
06:20	54.8	54.8	54.8	42	32.2	0	3	270	0.00	29.986 
06:25	54.8	54.8	54.8	43	32.7	0	2	270	0.00	29.986 
06:30	54.7	54.7	54.7	43	32.6	0	5	270	0.00	29.982 
06:35	54.8	54.8	54.8	43	32.7	0	3	248	0.00	29.982 
06:40	54.8	54.8	54.8	43	32.7	0	2	248	0.00	29.982 
06:45	54.7	54.7	54.7	43	32.6	0	4	248	0.00	29.986 
06:50	54.7	54.7	54.7	44	33.2	0	3	248	0.00	29.986 
06:55	54.7	54.7	54.7	44	33.2	0	3	248	0.00	29.986 
07:00	54.8	54.8	54.8	44	33.3	1	3	248	0.00	29.994 
07:05	54.8	54.8	54.8	44	33.3	0	1	248	0.00	29.994 
07:10	54.7	54.7	54.7	44	33.2	1	5	248	0.00	29.994 
07:15	54.8	54.8	54.8	45	33.9	0	3	248	0.00	29.992 
07:20	54.8	54.8	54.8	46	34.4	0	2	248	0.00	29.992 
07:25	54.8	54.8	54.8	45	33.9	0	4	248	0.00	29.992 
07:30	54.8	54.8	54.8	46	34.4	0	1	248	0.00	29.988 
07:35	54.8	54.8	54.8	46	34.4	0	2	248	0.00	29.988 
07:40	54.8	54.8	54.8	46	34.4	0	3	248	0.00	29.988 
07:45	54.8	54.8	54.8	47	35.0	0	2	248	0.00	29.986 
07:50	54.7	54.7	54.7	49	35.9	1	4	248	0.00	29.986 
07:55	54.8	54.8	54.8	48	35.5	1	9	248	0.00	29.986 
08:00	55.0	55.0	55.0	48	35.7	0	4	248	0.00	29.984 
08:05	55.0	55.0	55.0	48	35.7	1	4	248	0.00	29.984 
08:10	55.1	55.1	55.1	48	35.8	0	2	248	0.00	29.984 
08:15	55.1	55.1	55.1	47	35.2	1	6	248	0.00	29.987 
08:20	55.3	55.3	55.3	47	35.4	1	7	248	0.00	29.987 
08:25	55.4	55.4	55.4	47	35.5	1	4	248	0.00	29.987 
08:30	55.4	55.4	55.4	47	35.5	1	4	248	0.00	29.995 
08:35	55.4	55.4	55.4	48	36.0	0	4	248	0.00	29.995 
08:40	55.4	55.4	55.4	53	38.6	1	6	248	0.00	29.995 
08:45	54.8	54.8	54.8	55	38.9	1	4	270	0.00	29.992 
08:50	54.5	54.5	54.5	56	39.1	3	12	270	0.00	29.992 
08:55	54.2	54.2	54.2	57	39.3	2	6	248	0.00	29.992 
09:00	53.8	53.8	53.8	60	40.2	2	10	248	0.00	30.001 
09:05	53.2	53.2	53.2	65	41.7	2	6	248	0.00	30.001 
09:10	52.3	52.3	52.3	71	43.2	2	11	248	0.00	30.001 
09:15	51.4	51.4	51.4	76	44.1	1	6	248	0.00	30.009 
09:20	50.8	50.8	50.8	78	44.2	1	3	270	0.00	30.009 
09:25	50.4	50.4	50.4	81	44.8	2	6	248	0.00	30.009 
09:30	49.9	49.9	49.9	83	44.9	1	6	248	0.00	30.013 
09:35	49.6	49.6	49.6	85	45.3	2	7	248	0.00	30.013 
09:40	49.5	49.5	49.5	86	45.5	1	4	248	0.00	30.013 
09:45	49.4	49.4	49.4	87	45.7	1	4	248	0.00	30.007 
09:50	49.2	49.2	49.2	87	45.5	1	4	248	0.00	30.007 
09:55	49.1	49.1	49.1	88	45.7	1	7	248	0.00	30.007 
10:00	48.9	48.9	48.9	88	45.5	1	5	248	0.00	30.004 
10:05	48.8	48.8	48.8	89	45.7	1	4	248	0.01	30.004 
10:10	48.6	48.6	48.6	89	45.5	1	5	248	0.00	30.004 
10:15	48.8	48.8	48.8	90	46.0	1	3	90	0.00	29.995 
10:20	48.6	48.6	48.6	90	45.8	1	4	248	0.00	29.995 
10:25	48.6	48.6	48.6	90	45.8	1	4	248	0.00	29.995 
10:30	48.5	48.5	48.5	90	45.7	1	5	248	0.00	29.987 
10:35	48.5	48.5	48.5	90	45.7	1	5	248	0.00	29.987 
10:40	48.3	48.3	48.3	90	45.5	1	3	248	0.00	29.987 
10:45	48.5	48.5	48.5	90	45.7	1	3	248	0.00	29.987 
10:50	48.5	48.5	48.5	90	45.7	1	4	248	0.00	29.987 
10:55	48.6	48.6	48.6	90	45.8	0	4	248	0.00	29.987 
11:00	48.8	48.8	48.8	89	45.7	1	3	248	0.00	29.981 
11:05	48.9	48.9	48.9	89	45.8	0	2	292	0.00	29.981 
11:10	49.1	49.1	49.1	88	45.7	1	4	270	0.00	29.981 
11:15	49.2	49.2	49.2	88	45.8	1	3	270	0.00	29.980 
11:20	49.4	49.4	49.4	88	46.0	0	2	270	0.00	29.980 
11:25	49.5	49.5	49.5	87	45.8	1	7	248	0.00	29.980 
11:30	49.9	49.9	49.9	87	46.2	1	4	270	0.00	29.969 
11:35	50.2	50.2	50.2	86	46.2	1	5	248	0.00	29.969 
11:40	50.4	50.4	50.4	85	46.1	2	10	248	0.00	29.969 
11:45	50.7	50.7	50.7	84	46.0	1	5	248	0.00	29.966 
11:50	50.8	50.8	50.8	84	46.1	1	6	248	0.00	29.966 
11:55	51.0	51.0	51.0	82	45.7	2	5	248	0.00	29.966 
12:00	51.1	51.1	51.1	81	45.5	2	6	248	0.00	29.957 
12:05	51.4	51.4	51.4	81	45.8	1	4	248	0.00	29.957 
12:10	51.6	51.6	51.6	80	45.6	1	3	248	0.00	29.957 
12:15	51.7	51.7	51.7	80	45.7	1	4	270	0.00	29.952 
12:20	51.7	51.7	51.7	79	45.4	1	6	248	0.00	29.952 
12:25	51.7	51.7	51.7	78	45.1	1	4	248	0.00	29.952 
12:30	51.7	51.7	51.7	78	45.1	1	5	248	0.00	29.948 
12:35	51.4	51.4	51.4	79	45.1	1	6	248	0.00	29.948 
12:40	51.3	51.3	51.3	80	45.3	1	7	248	0.00	29.948 
12:45	51.1	51.1	51.1	81	45.5	1	9	248	0.00	29.951 
12:50	51.0	51.0	51.0	82	45.7	1	10	248	0.00	29.951 
12:55	51.0	51.0	51.0	83	46.0	2	7	248	0.00	29.951 
13:00	51.0	51.0	51.0	84	46.3	2	9	248	0.00	29.949 
13:05	51.0	51.0	51.0	84	46.3	1	4	248	0.00	29.949 
13:10	50.8	50.8	50.8	85	46.5	1	4	248	0.00	29.949 
13:15	50.8	50.8	50.8	86	46.8	2	6	270	0.00	29.950 
13:20	50.7	50.7	50.7	86	46.7	1	3	270	0.00	29.950 
13:25	50.7	50.7	50.7	87	47.0	2	6	248	0.00	29.950 
13:30	50.7	50.7	50.7	88	47.3	1	4	248	0.00	29.947 
13:35	50.7	50.7	50.7	88	47.3	0	3	248	0.01	29.947 
13:40	50.7	50.7	50.7	88	47.3	1	6	248	0.00	29.947 
13:45	50.7	50.7	50.7	89	47.6	1	5	248	0.00	29.949 
13:50	50.5	50.5	50.5	89	47.4	1	6	248	0.01	29.949 
13:55	50.5	50.5	50.5	90	47.7	1	3	248	0.00	29.949 
14:00	50.4	50.4	50.4	90	47.6	2	6	248	0.00	29.949 
14:05	50.4	50.4	50.4	90	47.6	1	6	248	0.01	29.949 
14:10	50.2	50.2	50.2	91	47.7	1	5	248	0.00	29.949 
14:15	50.2	50.2	50.2	91	47.7	1	4	248	0.01	29.945 
14:20	50.1	50.1	50.1	91	47.6	1	7	248	0.00	29.945 
14:25	50.1	50.1	50.1	91	47.6	1	5	248	0.00	29.945 
14:30	50.1	50.1	50.1	91	47.6	1	5	248	0.01	29.938 
14:35	50.1	50.1	50.1	92	47.9	0	2	270	0.00	29.938 
14:40	50.1	50.1	50.1	92	47.9	1	3	270	0.00	29.938 
14:45	50.1	50.1	50.1	92	47.9	1	4	270	0.01	29.938 
14:50	50.1	50.1	50.1	92	47.9	0	2	248	0.01	29.938 
14:55	49.9	49.9	49.9	92	47.7	0	2	248	0.00	29.938 
15:00	49.9	49.9	49.9	92	47.7	1	4	248	0.00	29.944 
15:05	49.8	49.8	49.8	92	47.6	1	3	248	0.01	29.944 
15:10	49.8	49.8	49.8	92	47.6	1	3	270	0.00	29.944 
15:15	49.8	49.8	49.8	93	47.9	1	4	248	0.00	29.953 
15:20	49.9	49.9	49.9	93	48.0	1	4	248	0.01	29.953 
15:25	49.9	49.9	49.9	93	48.0	1	4	248	0.01	29.953 
15:30	49.9	49.9	49.9	93	48.0	1	3	248	0.00	29.953 
15:35	49.9	49.9	49.9	93	48.0	1	6	248	0.01	29.953 
15:40	50.1	50.1	50.1	93	48.2	1	6	248	0.00	29.953 
15:45	50.1	50.1	50.1	93	48.2	0	2	248	0.00	29.956 
15:50	50.1	50.1	50.1	93	48.2	1	3	248	0.01	29.956 
15:55	50.1	50.1	50.1	93	48.2	0	3	248	0.00	29.956 
16:00	50.1	50.1	50.1	93	48.2	1	2	292	0.00	29.957 
16:05	50.1	50.1	50.1	93	48.2	0	2	248	0.01	29.957 
16:10	50.1	50.1	50.1	93	48.2	0	3	248	0.00	29.957 
16:15	50.1	50.1	50.1	94	48.4	1	3	248	0.01	29.959 
16:20	50.1	50.1	50.1	94	48.4	1	4	248	0.00	29.959 
16:25	50.1	50.1	50.1	94	48.4	1	5	248	0.01	29.959 
16:30	50.1	50.1	50.1	94	48.4	1	4	248	0.00	29.953 
16:35	50.1	50.1	50.1	94	48.4	0	4	270	0.01	29.953 
16:40	50.1	50.1	50.1	94	48.4	0	4	248	0.00	29.953 
16:45	50.1	50.1	50.1	94	48.4	1	3	248	0.01	29.954 
16:50	50.1	50.1	50.1	94	48.4	0	2	248	0.00	29.954 
16:55	50.1	50.1	50.1	94	48.4	0	2	248	0.01	29.954 
17:00	50.1	50.1	50.1	94	48.4	1	4	248	0.00	29.954 
17:05	50.1	50.1	50.1	94	48.4	1	5	248	0.00	29.954 
17:10	50.1	50.1	50.1	94	48.4	0	2	248	0.00	29.954 
17:15	50.1	50.1	50.1	94	48.4	1	4	248	0.00	29.954 
17:20	50.2	50.2	50.2	94	48.5	1	5	248	0.01	29.954 
17:25	50.2	50.2	50.2	94	48.5	1	4	248	0.00	29.954 
17:30	50.2	50.2	50.2	94	48.5	1	4	248	0.00	29.951 
17:35	50.2	50.2	50.2	94	48.5	1	4	248	0.00	29.951 
17:40	50.2	50.2	50.2	94	48.5	1	4	248	0.00	29.951 
17:45	50.2	50.2	50.2	94	48.5	2	5	248	0.00	29.956 
17:50	50.2	50.2	50.2	94	48.5	1	4	248	0.00	29.956 
17:55	50.2	50.2	50.2	94	48.5	2	5	248	0.00	29.956 
18:00	50.2	50.2	50.2	94	48.5	0	3	248	0.00	29.958 
18:05	50.1	50.1	50.1	94	48.4	1	4	248	0.00	29.958 
18:10	50.1	50.1	50.1	94	48.4	1	4	248	0.00	29.958 
18:15	50.1	50.1	50.1	94	48.4	1	4	248	0.00	29.969 
18:20	49.9	49.9	49.9	94	48.2	2	4	248	0.00	29.969 
18:25	49.9	49.9	49.9	94	48.2	1	4	248	0.00	29.969 
18:30	49.9	49.9	49.9	93	48.0	1	4	248	0.00	29.971 
18:35	49.4	49.4	49.4	93	47.5	2	6	270	0.00	29.971 
18:40	48.9	48.9	48.9	92	46.7	3	10	270	0.00	29.971 
18:45	48.3	48.3	48.3	91	45.8	3	7	270	0.00	29.986 
18:50	48.0	48.0	48.0	90	45.2	2	6	248	0.00	29.986 
18:55	47.7	47.7	47.7	88	44.3	3	9	248	0.00	29.986 
19:00	47.6	47.6	47.6	88	44.2	3	5	270	0.00	30.002 
19:05	47.6	47.6	47.6	87	43.9	2	4	248	0.00	30.002 
19:10	47.6	47.6	47.6	87	43.9	2	5	270	0.00	30.002 
19:15	47.6	47.6	47.6	87	43.9	2	7	270	0.00	30.001 
19:20	47.4	47.4	47.4	87	43.7	1	4	248	0.00	30.001 
19:25	47.4	47.4	47.4	87	43.7	1	5	248	0.00	30.001 
19:30	47.4	47.4	47.4	87	43.7	1	4	248	0.00	30.017 
19:35	47.4	47.4	47.4	87	43.7	1	4	248	0.00	30.017 
19:40	47.3	47.3	47.3	88	43.9	1	3	248	0.00	30.017 
19:45	47.3	47.3	47.3	88	43.9	0	2	248	0.00	30.016 
19:50	47.3	47.3	47.3	88	43.9	1	3	248	0.00	30.016 
19:55	47.1	47.1	47.1	87	43.4	1	4	248	0.00	30.016 
20:00	47.0	47.0	47.0	87	43.3	1	5	270	0.00	30.021 
20:05	47.0	47.0	47.0	87	43.3	2	5	248	0.00	30.021 
20:10	46.8	46.8	46.8	87	43.1	1	5	248	0.00	30.021 
20:15	46.7	46.7	46.7	87	43.0	1	4	248	0.00	30.033 
20:20	46.5	46.5	46.5	86	42.5	1	4	248	0.00	30.033 
20:25	46.4	46.4	46.4	86	42.4	1	4	248	0.00	30.033 
20:30	46.2	46.2	46.2	86	42.2	1	4	248	0.00	30.047 
20:35	46.1	46.1	46.1	86	42.1	1	4	248	0.00	30.047 
20:40	46.0	46.0	46.0	86	42.0	2	4	248	0.00	30.047 
20:45	45.8	45.8	45.8	86	41.9	1	4	248	0.00	30.051 
20:50	45.7	45.7	45.7	86	41.8	1	3	248	0.00	30.051 
20:55	45.5	45.5	45.5	86	41.6	0	2	248	0.00	30.051 
21:00	45.4	45.4	45.4	86	41.5	0	3	248	0.00	30.053 
21:05	45.2	45.2	45.2	86	41.3	1	4	248	0.00	30.053 
21:10	45.2	45.2	45.2	86	41.3	0	4	248	0.00	30.053 
21:15	45.1	45.1	45.1	86	41.2	1	4	248	0.00	30.062 
21:20	44.9	44.9	44.9	86	41.0	1	3	248	0.00	30.062 
21:25	44.9	44.9	44.9	86	41.0	1	4	248	0.00	30.062 
21:30	44.8	44.8	44.8	86	40.9	0	2	248	0.00	30.069 
21:35	44.6	44.6	44.6	86	40.7	0	2	248	0.00	30.069 
21:40	44.5	44.5	44.5	86	40.6	1	3	248	0.00	30.069 
21:45	44.5	44.5	44.5	86	40.6	1	3	248	0.00	30.073 
21:50	44.3	44.3	44.3	86	40.4	1	3	248	0.00	30.073 
21:55	44.2	44.2	44.2	85	40.0	1	2	248	0.00	30.073 
22:00	44.2	44.2	44.2	85	40.0	0	3	248	0.00	30.080 
22:05	44.1	44.1	44.1	85	39.9	1	3	248	0.00	30.080 
22:10	44.1	44.1	44.1	85	39.9	0	4	248	0.00	30.080 
22:15	44.1	44.1	44.1	85	39.9	0	2	248	0.00	30.088 
22:20	44.1	44.1	44.1	85	39.9	0	3	248	0.00	30.088 
22:25	43.9	43.9	43.9	85	39.7	1	5	248	0.00	30.088 
22:30	43.9	43.9	43.9	85	39.7	0	2	248	0.00	30.085 
22:35	43.9	43.9	43.9	85	39.7	1	4	248	0.00	30.085 
22:40	43.9	43.9	43.9	85	39.7	0	2	248	0.00	30.085 
22:45	43.9	43.9	43.9	85	39.7	0	3	248	0.00	30.091 
22:50	43.8	43.8	43.8	85	39.6	0	3	248	0.00	30.091 
22:55	43.8	43.8	43.8	85	39.6	0	3	248	0.00	30.091 
23:00	43.6	43.6	43.6	85	39.4	1	4	248	0.00	30.091 
23:05	43.6	43.6	43.6	85	39.4	0	3	248	0.00	30.091 
23:10	43.6	43.6	43.6	85	39.4	1	4	248	0.00	30.091 
23:15	43.6	43.6	43.6	85	39.4	1	4	248	0.00	30.090 
23:20	43.6	43.6	43.6	85	39.4	0	2	248	0.00	30.090 
23:25	43.5	43.5	43.5	85	39.3	0	4	248	0.00	30.090 
23:30	43.5	43.5	43.5	85	39.3	0	3	248	0.00	30.092 
23:35	43.5	43.5	43.5	85	39.3	1	3	248	0.00	30.092 
23:40	43.3	43.3	43.3	85	39.1	0	1	248	0.00	30.092 
23:45	43.3	43.3	43.3	85	39.1	1	4	248	0.00	30.092 
23:50	43.3	43.3	43.3	85	39.1	0	2	248	0.00	30.092 
23:55	43.3	43.3	43.3	85	39.1	0	2	248	0.00	30.092 

CoCoRaHS
IN-AL-39
A2 Web Hosting
Creative Commons License
GoDaddy
search engine by freefind advanced

loaded 2018-11-14 00:32:38 • last modified 2010-11-18 10:43:29
Privacy PolicyDisclaimer
• wx.awcolley.com is powered by PmWiki v.2002016 •
• all content (unless otherwise noted) © 2018 A W Colley